createdAt,value
2022-12-11T00:00:29.488Z,14.32
2022-12-11T00:02:57.081Z,13.57
2022-12-11T00:05:24.447Z,13.52
2022-12-11T00:07:51.812Z,12.90
2022-12-11T00:10:20.114Z,13.00
2022-12-11T00:12:47.410Z,14.38
2022-12-11T00:15:14.764Z,14.70
2022-12-11T00:17:42.100Z,11.70
2022-12-11T00:20:09.893Z,12.52
2022-12-11T00:22:37.266Z,10.13
2022-12-11T00:25:04.989Z,11.90
2022-12-11T00:27:32.397Z,14.95
2022-12-11T00:30:00.292Z,13.63
2022-12-11T00:32:28.553Z,14.68
2022-12-11T00:34:56.177Z,13.35
2022-12-11T00:37:24.047Z,15.00
2022-12-11T00:39:51.484Z,18.35
2022-12-11T00:42:18.836Z,14.13
2022-12-11T00:44:46.173Z,16.05
2022-12-11T00:47:13.453Z,13.40
2022-12-11T00:49:45.108Z,14.18
2022-12-11T00:52:17.942Z,15.70
2022-12-11T00:54:45.570Z,15.70
2022-12-11T00:57:12.900Z,13.60
2022-12-11T00:59:40.310Z,17.80
2022-12-11T01:02:07.638Z,16.50
2022-12-11T01:04:36.759Z,18.75
2022-12-11T01:07:04.129Z,15.35
2022-12-11T01:09:49.985Z,14.38
2022-12-11T01:12:17.283Z,15.68
2022-12-11T01:14:44.640Z,15.50
2022-12-11T01:17:11.954Z,16.50
2022-12-11T01:19:39.279Z,13.88
2022-12-11T01:22:06.572Z,16.58
2022-12-11T01:24:34.022Z,15.88
2022-12-11T01:27:01.333Z,15.43
2022-12-11T01:29:28.618Z,14.95
2022-12-11T01:31:55.903Z,16.92
2022-12-11T01:34:23.216Z,15.90
2022-12-11T01:36:52.379Z,14.57
2022-12-11T01:39:19.670Z,15.20
2022-12-11T01:41:47.086Z,15.80
2022-12-11T01:44:14.673Z,15.60
2022-12-11T01:46:43.090Z,13.88
2022-12-11T01:49:15.181Z,12.77
2022-12-11T01:51:49.840Z,14.10
2022-12-11T01:54:19.176Z,11.38
2022-12-11T01:56:48.219Z,13.38
2022-12-11T01:59:20.687Z,14.07
2022-12-11T02:01:54.343Z,13.32
2022-12-11T02:04:22.159Z,12.95
2022-12-11T02:06:51.975Z,11.77
2022-12-11T02:09:23.772Z,13.43
2022-12-11T02:12:04.553Z,14.20
2022-12-11T02:14:40.701Z,12.73
2022-12-11T02:17:23.471Z,12.48
2022-12-11T02:20:10.016Z,15.05
2022-12-11T02:22:59.519Z,12.32
2022-12-11T02:26:06.598Z,13.68
2022-12-11T02:28:49.002Z,11.70
2022-12-11T02:31:16.232Z,13.13
2022-12-11T02:33:55.193Z,12.98
2022-12-11T02:36:26.406Z,12.75
2022-12-11T02:38:56.974Z,11.95
2022-12-11T02:41:25.831Z,12.85
2022-12-11T02:43:55.368Z,12.60
2022-12-11T02:46:24.466Z,11.75
2022-12-11T02:48:53.793Z,11.68
2022-12-11T02:51:26.878Z,13.57
2022-12-11T02:53:58.054Z,12.45
2022-12-11T02:56:38.221Z,10.77
2022-12-11T02:59:13.104Z,12.63
2022-12-11T03:01:40.495Z,11.68
2022-12-11T03:04:08.002Z,12.07
2022-12-11T03:06:48.418Z,10.88
2022-12-11T03:09:15.847Z,11.15
2022-12-11T03:11:43.136Z,12.05
2022-12-11T03:14:11.413Z,9.52
2022-12-11T03:16:47.157Z,8.48
2022-12-11T03:19:41.435Z,8.50
2022-12-11T03:22:10.592Z,7.40
2022-12-11T03:25:02.631Z,8.90
2022-12-11T03:27:50.640Z,8.43
2022-12-11T03:30:20.364Z,6.00
2022-12-11T03:33:02.931Z,8.00
2022-12-11T03:35:34.853Z,8.35
2022-12-11T03:38:06.894Z,8.30
2022-12-11T03:40:36.111Z,10.55
2022-12-11T03:43:05.973Z,8.70
2022-12-11T03:45:34.692Z,9.00
2022-12-11T03:48:03.202Z,9.40
2022-12-11T03:50:32.616Z,9.27
2022-12-11T03:53:01.606Z,10.02
2022-12-11T03:55:30.387Z,11.55
2022-12-11T03:57:57.777Z,9.50
2022-12-11T04:00:25.169Z,10.13
2022-12-11T04:03:13.664Z,8.70
2022-12-11T04:05:47.632Z,7.00
2022-12-11T04:08:16.265Z,9.55
2022-12-11T04:10:43.977Z,8.75
2022-12-11T04:13:11.759Z,10.15
2022-12-11T04:15:40.090Z,10.57
2022-12-11T04:18:26.809Z,9.98
2022-12-11T04:21:14.163Z,9.65
2022-12-11T04:23:59.980Z,9.50
2022-12-11T04:26:27.416Z,11.43
2022-12-11T04:28:54.746Z,9.32
2022-12-11T04:31:22.946Z,11.05
2022-12-11T04:33:50.356Z,10.32
2022-12-11T04:36:17.659Z,10.50
2022-12-11T04:38:44.962Z,8.73
2022-12-11T04:41:14.604Z,9.68
2022-12-11T04:43:45.266Z,8.88
2022-12-11T04:46:18.569Z,10.43
2022-12-11T04:48:46.691Z,9.88
2022-12-11T04:51:14.744Z,10.85
2022-12-11T04:53:42.525Z,10.45
2022-12-11T04:56:11.959Z,11.25
2022-12-11T04:58:40.719Z,9.57
2022-12-11T05:01:19.456Z,9.30
2022-12-11T05:03:47.235Z,12.23
2022-12-11T05:06:14.704Z,9.43
2022-12-11T05:08:43.288Z,9.18
2022-12-11T05:11:13.093Z,7.53
2022-12-11T05:13:40.910Z,9.55
2022-12-11T05:16:12.530Z,8.98
2022-12-11T05:18:40.127Z,9.43
2022-12-11T05:21:09.855Z,8.60
2022-12-11T05:23:37.258Z,8.77
2022-12-11T05:26:07.445Z,9.63
2022-12-11T05:28:36.935Z,8.48
2022-12-11T05:31:18.654Z,9.32
2022-12-11T05:33:46.864Z,8.88
2022-12-11T05:36:21.228Z,9.00
2022-12-11T05:38:48.782Z,10.40
2022-12-11T05:41:19.999Z,8.75
2022-12-11T05:43:47.409Z,8.93
2022-12-11T05:46:16.854Z,8.68
2022-12-11T05:48:46.165Z,9.30
2022-12-11T05:51:15.360Z,8.13
2022-12-11T05:53:43.958Z,9.73
2022-12-11T05:56:20.631Z,9.68
2022-12-11T05:58:48.859Z,9.88
2022-12-11T06:01:20.745Z,10.75
2022-12-11T06:03:48.099Z,7.88
2022-12-11T06:06:15.866Z,9.77
2022-12-11T06:08:43.430Z,7.47
2022-12-11T06:11:13.279Z,10.57
2022-12-11T06:13:40.871Z,9.18
2022-12-11T06:16:10.175Z,10.00
2022-12-11T06:18:45.071Z,9.63
2022-12-11T06:21:17.971Z,9.60
2022-12-11T06:23:47.564Z,9.38
2022-12-11T06:26:16.635Z,10.23
2022-12-11T06:28:44.091Z,10.35
2022-12-11T06:31:11.880Z,11.05
2022-12-11T06:33:40.073Z,7.78
2022-12-11T06:36:10.687Z,9.45
2022-12-11T06:38:38.737Z,8.68
2022-12-11T06:41:07.726Z,9.02
2022-12-11T06:43:36.370Z,8.00
2022-12-11T06:46:05.526Z,8.38
2022-12-11T06:48:33.171Z,9.73
2022-12-11T06:51:04.530Z,10.10
2022-12-11T06:53:31.952Z,9.75
2022-12-11T06:56:07.500Z,10.32
2022-12-11T06:58:36.219Z,9.38
2022-12-11T07:01:04.873Z,9.90
2022-12-11T07:03:32.270Z,10.77
2022-12-11T07:06:03.386Z,10.23
2022-12-11T07:08:32.014Z,9.93
2022-12-11T07:11:08.542Z,9.88
2022-12-11T07:13:36.496Z,10.68
2022-12-11T07:16:05.791Z,8.98
2022-12-11T07:18:33.133Z,7.38
2022-12-11T07:21:00.648Z,9.77
2022-12-11T07:23:28.885Z,8.00
2022-12-11T07:25:56.627Z,8.63
2022-12-11T07:28:24.111Z,9.05
2022-12-11T07:30:51.500Z,7.88
2022-12-11T07:33:18.846Z,8.95
2022-12-11T07:35:46.179Z,9.15
2022-12-11T07:38:13.499Z,9.52
2022-12-11T07:40:41.006Z,10.30
2022-12-11T07:43:08.344Z,9.48
2022-12-11T07:45:35.727Z,8.65
2022-12-11T07:48:03.311Z,6.43
2022-12-11T07:50:32.889Z,9.40
2022-12-11T07:53:03.922Z,8.27
2022-12-11T07:55:32.256Z,9.80
2022-12-11T07:57:59.603Z,8.63
2022-12-11T08:00:26.943Z,9.73
2022-12-11T08:02:54.350Z,11.10
2022-12-11T08:05:22.631Z,9.18
2022-12-11T08:07:50.052Z,10.32
2022-12-11T08:10:17.666Z,9.27
2022-12-11T08:12:44.966Z,9.85
2022-12-11T08:15:12.473Z,8.32
2022-12-11T08:17:40.440Z,9.05
2022-12-11T08:20:08.611Z,8.93
2022-12-11T08:22:36.269Z,8.57
2022-12-11T08:25:03.833Z,9.82
2022-12-11T08:27:31.396Z,8.55
2022-12-11T08:29:58.698Z,8.73
2022-12-11T08:32:26.005Z,9.32
2022-12-11T08:34:53.384Z,8.95
2022-12-11T08:37:20.691Z,8.55
2022-12-11T08:39:49.117Z,9.05
2022-12-11T08:42:16.695Z,9.65
2022-12-11T08:44:44.020Z,9.40
2022-12-11T08:47:11.404Z,9.38
2022-12-11T08:49:38.757Z,10.43
2022-12-11T08:52:06.275Z,11.50
2022-12-11T08:54:33.753Z,9.65
2022-12-11T08:57:01.088Z,10.63
2022-12-11T08:59:28.629Z,10.38
2022-12-11T09:01:56.627Z,9.65
2022-12-11T09:04:24.050Z,8.40
2022-12-11T09:06:51.344Z,9.45
2022-12-11T09:09:18.803Z,9.70
2022-12-11T09:11:46.465Z,10.00
2022-12-11T09:14:13.934Z,9.38
2022-12-11T09:16:41.769Z,10.38
2022-12-11T09:19:13.748Z,9.55
2022-12-11T09:21:42.844Z,9.73
2022-12-11T09:24:11.640Z,10.27
2022-12-11T09:26:40.071Z,9.25
2022-12-11T09:29:07.783Z,9.15
2022-12-11T09:31:36.652Z,10.45
2022-12-11T09:34:07.529Z,10.15
2022-12-11T09:36:35.594Z,8.75
2022-12-11T09:39:05.838Z,9.00
2022-12-11T09:41:37.623Z,8.77
2022-12-11T09:44:24.150Z,9.95
2022-12-11T09:46:52.169Z,8.45
2022-12-11T09:49:37.598Z,9.25
2022-12-11T09:52:18.739Z,9.63
2022-12-11T09:55:16.706Z,9.15
2022-12-11T09:58:10.324Z,9.35
2022-12-11T10:00:40.865Z,9.60
2022-12-11T10:03:26.951Z,8.95
2022-12-11T10:06:23.152Z,9.20
2022-12-11T10:09:08.794Z,8.43
2022-12-11T10:11:57.999Z,9.57
2022-12-11T10:14:51.757Z,7.78
2022-12-11T10:17:31.289Z,8.93
2022-12-11T10:20:05.792Z,7.85
2022-12-11T10:22:33.977Z,7.95
2022-12-11T10:25:12.844Z,7.30
2022-12-11T10:27:41.499Z,7.82
2022-12-11T10:30:18.439Z,6.65
2022-12-11T10:33:20.644Z,8.85
2022-12-11T10:35:54.843Z,8.65
2022-12-11T10:38:28.391Z,8.02
2022-12-11T10:41:02.500Z,7.15
2022-12-11T10:43:38.508Z,8.38
2022-12-11T10:46:12.886Z,8.95
2022-12-11T10:48:55.438Z,8.00
2022-12-11T10:51:25.613Z,6.75
2022-12-11T10:53:55.370Z,8.25
2022-12-11T10:56:31.500Z,8.15
2022-12-11T10:59:00.490Z,6.47
2022-12-11T11:01:32.550Z,8.20
2022-12-11T11:04:15.166Z,7.20
2022-12-11T11:06:42.541Z,6.10
2022-12-11T11:09:42.171Z,7.75
2022-12-11T11:12:29.049Z,6.35
2022-12-11T11:15:13.952Z,7.35
2022-12-11T11:17:54.605Z,7.57
2022-12-11T11:20:26.756Z,7.95
2022-12-11T11:22:56.840Z,7.45
2022-12-11T11:25:26.347Z,7.13
2022-12-11T11:28:06.257Z,8.02
2022-12-11T11:30:42.441Z,8.63
2022-12-11T11:33:23.990Z,7.03
2022-12-11T11:36:01.637Z,7.93
2022-12-11T11:38:41.227Z,7.53
2022-12-11T11:41:15.760Z,8.48
2022-12-11T11:43:47.490Z,8.48
2022-12-11T11:46:33.408Z,7.95
2022-12-11T11:49:12.815Z,8.10
2022-12-11T11:51:45.462Z,7.20
2022-12-11T11:54:34.564Z,7.03
2022-12-11T11:57:12.481Z,7.57
2022-12-11T11:59:56.559Z,8.32
2022-12-11T12:02:24.018Z,8.05
2022-12-11T12:04:51.966Z,8.18
2022-12-11T12:07:45.219Z,6.03
2022-12-11T12:10:56.713Z,6.78
2022-12-11T12:13:50.595Z,8.15
2022-12-11T12:16:52.180Z,8.00
2022-12-11T12:19:41.285Z,6.82
2022-12-11T12:22:47.838Z,7.93
2022-12-11T12:25:51.361Z,7.80
2022-12-11T12:29:05.231Z,10.02
2022-12-11T12:31:35.574Z,8.85
2022-12-11T12:34:17.993Z,9.38
2022-12-11T12:36:51.004Z,9.13
2022-12-11T12:39:21.683Z,9.13
2022-12-11T12:42:14.200Z,7.18
2022-12-11T12:45:19.305Z,8.85
2022-12-11T12:47:53.176Z,8.55
2022-12-11T12:50:25.219Z,9.90
2022-12-11T12:52:54.306Z,8.90
2022-12-11T12:55:24.942Z,10.13
2022-12-11T12:58:00.603Z,9.95
2022-12-11T13:00:29.300Z,8.50
2022-12-11T13:02:57.764Z,9.30
2022-12-11T13:05:34.455Z,8.50
2022-12-11T13:08:05.455Z,7.50
2022-12-11T13:10:36.205Z,9.48
2022-12-11T13:13:05.937Z,11.20
2022-12-11T13:15:40.755Z,6.97
2022-12-11T13:18:35.875Z,9.98
2022-12-11T13:21:35.178Z,10.13
2022-12-11T13:24:21.069Z,10.43
2022-12-11T13:26:50.126Z,9.32
2022-12-11T13:29:37.741Z,10.05
2022-12-11T13:32:08.221Z,8.60
2022-12-11T13:34:39.278Z,11.20
2022-12-11T13:37:20.636Z,10.57
2022-12-11T13:39:48.100Z,7.95
2022-12-11T13:42:48.337Z,9.77
2022-12-11T13:45:44.061Z,8.63
2022-12-11T13:48:29.504Z,9.23
2022-12-11T13:50:59.084Z,9.80
2022-12-11T13:53:26.460Z,9.27
2022-12-11T13:56:06.345Z,9.60
2022-12-11T13:58:37.964Z,7.72
2022-12-11T14:01:15.908Z,8.90
2022-12-11T14:04:01.402Z,9.88
2022-12-11T14:06:31.213Z,9.07
2022-12-11T14:09:01.528Z,9.07
2022-12-11T14:11:37.072Z,9.73
2022-12-11T14:14:15.296Z,8.25
2022-12-11T14:16:43.585Z,9.07
2022-12-11T14:19:17.664Z,9.70
2022-12-11T14:21:59.265Z,9.02
2022-12-11T14:24:27.080Z,8.90
2022-12-11T14:26:55.453Z,9.95
2022-12-11T14:29:32.853Z,9.68
2022-12-11T14:32:04.703Z,9.35
2022-12-11T14:34:37.024Z,9.38
2022-12-11T14:37:07.871Z,9.48
2022-12-11T14:39:40.987Z,9.30
2022-12-11T14:42:13.912Z,10.20
2022-12-11T14:45:00.580Z,9.18
2022-12-11T14:47:32.624Z,8.75
2022-12-11T14:50:13.179Z,7.63
2022-12-11T14:52:47.227Z,8.32
2022-12-11T14:55:28.671Z,8.23
2022-12-11T14:58:21.236Z,8.48
2022-12-11T15:01:06.704Z,9.35
2022-12-11T15:03:39.461Z,9.98
2022-12-11T15:06:24.556Z,9.30
2022-12-11T15:08:53.679Z,9.35
2022-12-11T15:11:21.986Z,10.15
2022-12-11T15:13:53.295Z,8.90
2022-12-11T15:16:23.199Z,8.38
2022-12-11T15:18:53.001Z,10.52
2022-12-11T15:21:29.717Z,9.80
2022-12-11T15:23:59.884Z,9.60
2022-12-11T15:26:39.011Z,9.10
2022-12-11T15:29:37.134Z,9.27
2022-12-11T15:32:14.093Z,8.27
2022-12-11T15:34:48.829Z,9.70
2022-12-11T15:37:23.823Z,10.18
2022-12-11T15:39:53.593Z,9.65
2022-12-11T15:42:44.171Z,8.52
2022-12-11T15:45:23.477Z,9.43
2022-12-11T15:47:52.049Z,7.80
2022-12-11T15:50:25.356Z,8.80
2022-12-11T15:52:54.337Z,9.88
2022-12-11T15:55:23.304Z,7.68
2022-12-11T15:57:55.040Z,9.85
2022-12-11T16:00:23.992Z,9.98
2022-12-11T16:02:52.210Z,8.70
2022-12-11T16:05:19.966Z,9.43
2022-12-11T16:07:48.884Z,8.90
2022-12-11T16:10:17.808Z,9.18
2022-12-11T16:12:45.719Z,7.88
2022-12-11T16:15:21.496Z,8.27
2022-12-11T16:17:59.512Z,7.60
2022-12-11T16:20:26.803Z,7.72
2022-12-11T16:22:54.246Z,7.32
2022-12-11T16:25:21.662Z,7.13
2022-12-11T16:27:50.337Z,6.70
2022-12-11T16:30:17.885Z,7.55
2022-12-11T16:32:45.288Z,7.68
2022-12-11T16:35:13.228Z,6.50
2022-12-11T16:37:40.854Z,7.15
2022-12-11T16:40:09.324Z,7.10
2022-12-11T16:42:38.199Z,6.90
2022-12-11T16:45:12.429Z,7.45
2022-12-11T16:47:40.068Z,7.93
2022-12-11T16:50:08.168Z,7.53
2022-12-11T16:52:35.453Z,6.50
2022-12-11T16:55:03.304Z,7.30
2022-12-11T16:57:30.752Z,7.45
2022-12-11T16:59:58.360Z,4.53
2022-12-11T17:02:25.874Z,8.43
2022-12-11T17:04:54.117Z,6.32
2022-12-11T17:07:21.571Z,7.40
2022-12-11T17:09:48.930Z,8.13
2022-12-11T17:12:16.341Z,7.85
2022-12-11T17:14:44.220Z,7.38
2022-12-11T17:17:11.547Z,6.85
2022-12-11T17:19:38.792Z,8.13
2022-12-11T17:22:06.114Z,8.73
2022-12-11T17:24:33.600Z,7.35
2022-12-11T17:27:01.124Z,7.50
2022-12-11T17:29:28.628Z,8.40
2022-12-11T17:31:55.965Z,8.43
2022-12-11T17:34:23.310Z,7.32
2022-12-11T17:36:51.410Z,7.57
2022-12-11T17:39:20.167Z,7.18
2022-12-11T17:41:47.520Z,7.72
2022-12-11T17:44:14.863Z,7.82
2022-12-11T17:46:43.222Z,7.95
2022-12-11T17:49:10.781Z,7.57
2022-12-11T17:51:38.241Z,6.75
2022-12-11T17:54:05.640Z,7.38
2022-12-11T17:56:34.899Z,7.95
2022-12-11T17:59:02.842Z,8.75
2022-12-11T18:01:30.296Z,8.38
2022-12-11T18:04:01.413Z,7.55
2022-12-11T18:06:29.991Z,7.32
2022-12-11T18:08:57.845Z,6.65
2022-12-11T18:11:25.682Z,7.18
2022-12-11T18:13:53.752Z,6.85
2022-12-11T18:16:24.665Z,7.55
2022-12-11T18:18:52.622Z,6.90
2022-12-11T18:21:26.330Z,7.82
2022-12-11T18:23:54.468Z,7.25
2022-12-11T18:26:22.329Z,7.65
2022-12-11T18:28:50.930Z,7.93
2022-12-11T18:31:19.997Z,6.30
2022-12-11T18:33:47.705Z,6.80
2022-12-11T18:36:18.211Z,7.80
2022-12-11T18:38:46.289Z,8.18
2022-12-11T18:41:14.887Z,9.07
2022-12-11T18:43:42.867Z,7.70
2022-12-11T18:48:57.634Z,7.53
2022-12-11T18:51:25.775Z,9.00
2022-12-11T18:53:53.566Z,7.82
2022-12-11T18:56:23.044Z,6.72
2022-12-11T18:58:51.124Z,7.25
2022-12-11T19:01:26.889Z,6.97
2022-12-11T19:04:04.268Z,7.40
2022-12-11T19:06:41.113Z,7.90
2022-12-11T19:09:14.150Z,7.97
2022-12-11T19:11:42.283Z,7.78
2022-12-11T19:14:10.751Z,7.82
2022-12-11T19:16:41.320Z,6.78
2022-12-11T19:19:13.189Z,8.20
2022-12-11T19:21:41.623Z,7.65
2022-12-11T19:24:11.747Z,7.72
2022-12-11T19:26:39.123Z,8.32
2022-12-11T19:29:06.823Z,7.20
2022-12-11T19:31:34.632Z,6.78
2022-12-11T19:34:03.020Z,7.40
2022-12-11T19:36:31.748Z,7.25
2022-12-11T19:39:01.758Z,6.43
2022-12-11T19:41:30.754Z,7.13
2022-12-11T19:43:59.500Z,8.40
2022-12-11T19:46:28.931Z,7.35
2022-12-11T19:48:58.294Z,6.97
2022-12-11T19:51:33.948Z,8.10
2022-12-11T19:54:04.891Z,8.25
2022-12-11T19:56:33.135Z,6.82
2022-12-11T19:59:03.042Z,7.50
2022-12-11T20:01:32.370Z,7.82
2022-12-11T20:04:02.617Z,7.22
2022-12-11T20:06:32.115Z,7.57
2022-12-11T20:09:00.149Z,7.43
2022-12-11T20:11:35.942Z,6.68
2022-12-11T20:14:03.937Z,7.97
2022-12-11T20:17:08.694Z,8.15
2022-12-11T20:19:19.457Z,8.30
2022-12-11T20:21:46.993Z,7.78
2022-12-11T20:24:15.490Z,7.20
2022-12-11T20:26:46.180Z,7.22
2022-12-11T20:29:14.248Z,6.97
2022-12-11T20:31:47.981Z,7.88
2022-12-11T20:34:18.934Z,6.20
2022-12-11T20:36:49.619Z,8.95
2022-12-11T20:39:17.234Z,7.65
2022-12-11T20:41:44.672Z,7.70
2022-12-11T20:44:12.096Z,7.70
2022-12-11T20:46:39.458Z,7.40
2022-12-11T20:49:12.708Z,7.93
2022-12-11T20:51:41.217Z,7.07
2022-12-11T20:54:08.679Z,8.38
2022-12-11T20:56:38.382Z,8.15
2022-12-11T20:59:19.665Z,7.67
2022-12-11T21:01:52.000Z,7.82
2022-12-11T21:04:52.860Z,7.90
2022-12-11T21:07:38.370Z,7.03
2022-12-11T21:10:14.235Z,7.30
2022-12-11T21:12:42.123Z,7.50
2022-12-11T21:15:12.185Z,8.43
2022-12-11T21:17:42.566Z,6.38
2022-12-11T21:20:11.352Z,7.60
2022-12-11T21:22:38.925Z,7.90
2022-12-11T21:25:08.209Z,8.38
2022-12-11T21:27:36.853Z,7.75
2022-12-11T21:30:05.966Z,8.52
2022-12-11T21:32:35.738Z,8.75
2022-12-11T21:35:04.199Z,7.07
2022-12-11T21:37:31.961Z,6.57
2022-12-11T21:40:00.304Z,6.85
2022-12-11T21:42:28.074Z,7.93
2022-12-11T21:45:37.490Z,7.75
2022-12-11T21:47:43.902Z,6.75
2022-12-11T21:50:14.531Z,6.03
2022-12-11T21:52:43.375Z,7.70
2022-12-11T21:55:12.428Z,7.10
2022-12-11T21:57:40.576Z,6.60
2022-12-11T22:00:09.494Z,6.78
2022-12-11T22:02:41.336Z,5.43
2022-12-11T22:05:09.862Z,7.35
2022-12-11T22:07:37.519Z,5.50
2022-12-11T22:10:06.014Z,6.78
2022-12-11T22:12:33.928Z,6.57
2022-12-11T22:15:01.992Z,6.38
2022-12-11T22:17:29.910Z,6.40
2022-12-11T22:19:57.970Z,6.97
2022-12-11T22:22:29.299Z,5.57
2022-12-11T22:24:57.849Z,6.82
2022-12-11T22:27:26.285Z,6.82
2022-12-11T22:29:54.570Z,6.22
2022-12-11T22:32:21.990Z,7.10
2022-12-11T22:34:49.380Z,7.25
2022-12-11T22:37:16.728Z,6.78
2022-12-11T22:39:44.035Z,8.40
2022-12-11T22:42:11.423Z,7.05
2022-12-11T22:44:39.873Z,6.72
2022-12-11T22:47:07.450Z,6.80
2022-12-11T22:49:36.091Z,6.63
2022-12-11T22:52:03.758Z,7.47
2022-12-11T22:54:31.053Z,6.85
2022-12-11T22:56:58.832Z,7.38
2022-12-11T22:59:26.240Z,6.40
2022-12-11T23:01:53.596Z,8.35
2022-12-11T23:04:20.979Z,7.03
2022-12-11T23:06:48.503Z,6.72
2022-12-11T23:09:16.107Z,7.00
2022-12-11T23:11:43.609Z,7.32
2022-12-11T23:14:15.645Z,6.43
2022-12-11T23:16:44.240Z,8.23
2022-12-11T23:19:12.964Z,7.93
2022-12-11T23:21:40.789Z,6.82
2022-12-11T23:24:09.040Z,7.20
2022-12-11T23:26:40.405Z,6.50
2022-12-11T23:29:08.440Z,7.25
2022-12-11T23:31:36.320Z,6.15
2022-12-11T23:34:04.160Z,7.63
2022-12-11T23:36:31.740Z,6.22
2022-12-11T23:38:59.198Z,7.22
2022-12-11T23:41:26.569Z,7.43
2022-12-11T23:43:57.747Z,7.97
2022-12-11T23:46:25.722Z,6.50
2022-12-11T23:48:53.966Z,7.45
2022-12-11T23:51:23.563Z,8.43
2022-12-11T23:53:51.633Z,7.40
2022-12-11T23:56:28.119Z,6.88
2022-12-11T23:58:56.282Z,7.03
